createdAt,value
2018-04-25T00:00:59.059Z,1007.27
2018-04-25T00:01:59.494Z,1007.28
2018-04-25T00:02:59.921Z,1007.27
2018-04-25T00:04:00.352Z,1007.25
2018-04-25T00:05:00.784Z,1007.32
2018-04-25T00:06:01.232Z,1007.33
2018-04-25T00:07:01.662Z,1007.31
2018-04-25T00:08:02.078Z,1007.28
2018-04-25T00:09:02.509Z,1007.26
2018-04-25T00:10:02.953Z,1007.17
2018-04-25T00:11:03.377Z,1007.14
2018-04-25T00:12:03.803Z,1007.10
2018-04-25T00:13:04.236Z,1007.10
2018-04-25T00:14:04.669Z,1007.08
2018-04-25T00:15:05.099Z,1007.06
2018-04-25T00:16:05.615Z,1007.05
2018-04-25T00:17:05.967Z,1007.09
2018-04-25T00:18:06.392Z,1007.05
2018-04-25T00:19:06.829Z,1007.04
2018-04-25T00:20:07.259Z,1007.05
2018-04-25T00:21:07.685Z,1007.03
2018-04-25T00:22:08.121Z,1007.03
2018-04-25T00:23:08.548Z,1007.04
2018-04-25T00:24:08.985Z,1007.06
2018-04-25T00:25:09.409Z,1007.02
2018-04-25T00:26:09.844Z,1007.02
2018-04-25T00:27:10.277Z,1007.01
2018-04-25T00:28:10.707Z,1006.95
2018-04-25T00:29:11.139Z,1006.96
2018-04-25T00:30:11.587Z,1006.89
2018-04-25T00:31:12.007Z,1006.93
2018-04-25T00:32:12.431Z,1006.91
2018-04-25T00:33:12.861Z,1006.88
2018-04-25T00:34:13.299Z,1006.90
2018-04-25T00:35:13.725Z,1006.86
2018-04-25T00:36:14.158Z,1006.83
2018-04-25T00:37:14.591Z,1006.82
2018-04-25T00:38:15.016Z,1006.79
2018-04-25T00:39:15.447Z,1006.77
2018-04-25T00:40:15.878Z,1006.73
2018-04-25T00:41:16.384Z,1006.72
2018-04-25T00:42:16.743Z,1006.68
2018-04-25T00:43:17.175Z,1006.73
2018-04-25T00:44:17.602Z,1006.72
2018-04-25T00:45:18.047Z,1006.70
2018-04-25T00:46:18.465Z,1006.72
2018-04-25T00:47:18.896Z,1006.65
2018-04-25T00:48:19.331Z,1006.68
2018-04-25T00:49:19.759Z,1006.63
2018-04-25T00:50:20.191Z,1006.61
2018-04-25T00:51:20.620Z,1006.62
2018-04-25T00:52:21.058Z,1006.61
2018-04-25T00:53:21.489Z,1006.58
2018-04-25T00:54:21.915Z,1006.57
2018-04-25T00:55:22.345Z,1006.52
2018-04-25T00:56:22.785Z,1006.48
2018-04-25T00:57:23.209Z,1006.44
2018-04-25T00:58:23.639Z,1006.40
2018-04-25T00:59:24.069Z,1006.43
2018-04-25T01:00:24.503Z,1006.43
2018-04-25T01:01:24.940Z,1006.38
2018-04-25T01:02:25.369Z,1006.43
2018-04-25T01:03:25.796Z,1006.43
2018-04-25T01:04:26.228Z,1006.44
2018-04-25T01:05:26.657Z,1006.45
2018-04-25T01:06:27.118Z,1006.45
2018-04-25T01:07:27.523Z,1006.43
2018-04-25T01:08:27.955Z,1006.41
2018-04-25T01:09:28.403Z,1006.42
2018-04-25T01:10:28.822Z,1006.40
2018-04-25T01:11:29.272Z,1006.37
2018-04-25T01:12:29.677Z,1006.32
2018-04-25T01:13:30.108Z,1006.27
2018-04-25T01:14:30.538Z,1006.30
2018-04-25T01:15:30.974Z,1006.27
2018-04-25T01:16:31.409Z,1006.27
2018-04-25T01:17:31.832Z,1006.26
2018-04-25T01:18:32.267Z,1006.26
2018-04-25T01:19:32.707Z,1006.27
2018-04-25T01:20:33.127Z,1006.22
2018-04-25T01:21:33.559Z,1006.21
2018-04-25T01:22:33.986Z,1006.16
2018-04-25T01:23:34.421Z,1006.17
2018-04-25T01:24:34.848Z,1006.13
2018-04-25T01:25:35.289Z,1006.09
2018-04-25T01:26:35.717Z,1006.04
2018-04-25T01:27:36.141Z,1006.05
2018-04-25T01:28:36.570Z,1006.03
2018-04-25T01:29:37.012Z,1006.03
2018-04-25T01:30:37.438Z,1006.03
2018-04-25T01:31:37.869Z,1006.03
2018-04-25T01:32:38.308Z,1005.98
2018-04-25T01:33:38.730Z,1005.99
2018-04-25T01:34:39.161Z,1005.91
2018-04-25T01:35:39.590Z,1005.93
2018-04-25T01:36:40.089Z,1005.91
2018-04-25T01:37:40.461Z,1005.88
2018-04-25T01:38:40.885Z,1005.82
2018-04-25T01:39:41.314Z,1005.79
2018-04-25T01:40:41.749Z,1005.78
2018-04-25T01:41:42.176Z,1005.79
2018-04-25T01:42:42.610Z,1005.76
2018-04-25T01:43:43.039Z,1005.75
2018-04-25T01:44:43.467Z,1005.74
2018-04-25T01:45:43.905Z,1005.76
2018-04-25T01:46:44.329Z,1005.79
2018-04-25T01:47:44.773Z,1005.74
2018-04-25T01:48:45.193Z,1005.66
2018-04-25T01:49:45.627Z,1005.62
2018-04-25T01:50:46.058Z,1005.61
2018-04-25T01:51:46.513Z,1005.60
2018-04-25T01:52:46.918Z,1005.57
2018-04-25T01:53:47.350Z,1005.44
2018-04-25T01:54:47.786Z,1005.36
2018-04-25T01:55:48.210Z,1005.41
2018-04-25T01:56:48.640Z,1005.48
2018-04-25T01:57:49.071Z,1005.51
2018-04-25T01:58:49.501Z,1005.48
2018-04-25T01:59:49.930Z,1005.41
2018-04-25T02:00:50.366Z,1005.35
2018-04-25T02:01:50.797Z,1005.34
2018-04-25T02:02:51.226Z,1005.32
2018-04-25T02:03:51.656Z,1005.27
2018-04-25T02:04:52.086Z,1005.23
2018-04-25T02:05:52.522Z,1005.26
2018-04-25T02:06:52.947Z,1005.23
2018-04-25T02:07:53.380Z,1005.19
2018-04-25T02:08:53.810Z,1005.20
2018-04-25T02:09:54.244Z,1005.22
2018-04-25T02:10:54.670Z,1005.20
2018-04-25T02:11:55.102Z,1005.21
2018-04-25T02:12:55.534Z,1005.18
2018-04-25T02:13:55.962Z,1005.21
2018-04-25T02:14:56.395Z,1005.25
2018-04-25T02:15:56.824Z,1005.23
2018-04-25T02:16:57.256Z,1005.19
2018-04-25T02:17:57.686Z,1005.14
2018-04-25T02:18:58.182Z,1005.15
2018-04-25T02:19:58.550Z,1005.16
2018-04-25T02:20:58.982Z,1005.15
2018-04-25T02:21:59.414Z,1005.07
2018-04-25T02:22:59.841Z,1005.10
2018-04-25T02:24:00.274Z,1005.10
2018-04-25T02:25:00.700Z,1005.04
2018-04-25T02:26:01.131Z,1005.01
2018-04-25T02:27:01.577Z,1005.00
2018-04-25T02:28:01.999Z,1004.89
2018-04-25T02:29:02.439Z,1004.90
2018-04-25T02:30:02.858Z,1004.87
2018-04-25T02:31:03.292Z,1004.85
2018-04-25T02:32:03.720Z,1004.79
2018-04-25T02:33:04.153Z,1004.71
2018-04-25T02:34:04.584Z,1004.69
2018-04-25T02:35:05.013Z,1004.70
2018-04-25T02:36:05.451Z,1004.65
2018-04-25T02:37:05.880Z,1004.62
2018-04-25T02:38:06.306Z,1004.58
2018-04-25T02:39:06.738Z,1004.55
2018-04-25T02:40:07.167Z,1004.56
2018-04-25T02:41:07.604Z,1004.55
2018-04-25T02:42:08.031Z,1004.49
2018-04-25T02:43:08.463Z,1004.45
2018-04-25T02:44:08.893Z,1004.42
2018-04-25T02:45:09.321Z,1004.41
2018-04-25T02:46:09.754Z,1004.43
2018-04-25T02:47:10.184Z,1004.40
2018-04-25T02:48:10.617Z,1004.45
2018-04-25T02:49:11.045Z,1004.43
2018-04-25T02:50:11.477Z,1004.40
2018-04-25T02:51:11.910Z,1004.37
2018-04-25T02:52:12.338Z,1004.42
2018-04-25T02:53:12.771Z,1004.41
2018-04-25T02:54:13.202Z,1004.40
2018-04-25T02:55:13.634Z,1004.32
2018-04-25T02:56:14.062Z,1004.30
2018-04-25T02:57:14.494Z,1004.24
2018-04-25T02:58:14.923Z,1004.22
2018-04-25T02:59:15.350Z,1004.21
2018-04-25T03:00:15.781Z,1004.16
2018-04-25T03:01:16.213Z,1004.14
2018-04-25T03:02:16.668Z,1004.09
2018-04-25T03:03:17.073Z,1004.06
2018-04-25T03:04:17.505Z,1004.07
2018-04-25T03:05:17.940Z,1004.08
2018-04-25T03:06:18.364Z,1004.01
2018-04-25T03:07:18.794Z,1003.96
2018-04-25T03:08:19.229Z,1003.99
2018-04-25T03:09:19.655Z,1003.98
2018-04-25T03:10:20.085Z,1003.96
2018-04-25T03:11:20.516Z,1003.95
2018-04-25T03:12:20.951Z,1003.96
2018-04-25T03:13:21.376Z,1003.99
2018-04-25T03:14:21.805Z,1003.95
2018-04-25T03:15:22.245Z,1003.93
2018-04-25T03:16:22.671Z,1003.92
2018-04-25T03:17:23.099Z,1003.94
2018-04-25T03:18:23.527Z,1003.87
2018-04-25T03:19:23.958Z,1003.83
2018-04-25T03:20:24.395Z,1003.85
2018-04-25T03:21:24.817Z,1003.82
2018-04-25T03:22:25.250Z,1003.80
2018-04-25T03:23:25.682Z,1003.80
2018-04-25T03:24:26.110Z,1003.74
2018-04-25T03:25:26.539Z,1003.75
2018-04-25T03:26:26.968Z,1003.72
2018-04-25T03:27:27.402Z,1003.71
2018-04-25T03:28:27.827Z,1003.69
2018-04-25T03:29:28.261Z,1003.71
2018-04-25T03:30:28.692Z,1003.66
2018-04-25T03:31:29.119Z,1003.66
2018-04-25T03:32:29.549Z,1003.61
2018-04-25T03:33:29.978Z,1003.63
2018-04-25T03:34:30.407Z,1003.58
2018-04-25T03:35:30.842Z,1003.61
2018-04-25T03:36:31.271Z,1003.60
2018-04-25T03:37:31.699Z,1003.61
2018-04-25T03:38:32.136Z,1003.60
2018-04-25T03:39:32.559Z,1003.57
2018-04-25T03:40:32.987Z,1003.59
2018-04-25T03:41:33.420Z,1003.55
2018-04-25T03:42:33.859Z,1003.51
2018-04-25T03:43:34.277Z,1003.52
2018-04-25T03:44:34.711Z,1003.49
2018-04-25T03:45:35.141Z,1003.46
2018-04-25T03:46:35.569Z,1003.53
2018-04-25T03:47:35.997Z,1003.53
2018-04-25T03:48:36.429Z,1003.52
2018-04-25T03:49:36.867Z,1003.50
2018-04-25T03:50:37.291Z,1003.49
2018-04-25T03:51:37.719Z,1003.47
2018-04-25T03:52:38.147Z,1003.48
2018-04-25T03:53:38.581Z,1003.50
2018-04-25T03:54:39.009Z,1003.51
2018-04-25T03:55:39.441Z,1003.47
2018-04-25T03:56:39.917Z,1003.44
2018-04-25T03:57:40.310Z,1003.46
2018-04-25T03:58:40.735Z,1003.45
2018-04-25T03:59:41.158Z,1003.41
2018-04-25T04:00:41.591Z,1003.37
2018-04-25T04:01:42.033Z,1003.44
2018-04-25T04:02:42.462Z,1003.40
2018-04-25T04:03:42.886Z,1003.41
2018-04-25T04:04:43.318Z,1003.38
2018-04-25T04:05:43.743Z,1003.42
2018-04-25T04:06:44.174Z,1003.43
2018-04-25T04:07:44.608Z,1003.40
2018-04-25T04:08:45.047Z,1003.36
2018-04-25T04:09:45.465Z,1003.35
2018-04-25T04:10:45.892Z,1003.42
2018-04-25T04:11:46.327Z,1003.41
2018-04-25T04:12:46.753Z,1003.40
2018-04-25T04:13:47.189Z,1003.43
2018-04-25T04:14:47.617Z,1003.41
2018-04-25T04:15:48.046Z,1003.38
2018-04-25T04:16:48.484Z,1003.43
2018-04-25T04:17:48.905Z,1003.37
2018-04-25T04:18:49.337Z,1003.44
2018-04-25T04:19:49.773Z,1003.39
2018-04-25T04:20:50.203Z,1003.39
2018-04-25T04:21:50.630Z,1003.37
2018-04-25T04:22:51.055Z,1003.36
2018-04-25T04:23:51.493Z,1003.32
2018-04-25T04:24:51.929Z,1003.26
2018-04-25T04:25:52.353Z,1003.24
2018-04-25T04:26:52.785Z,1003.25
2018-04-25T04:27:53.216Z,1003.25
2018-04-25T04:28:53.643Z,1003.21
2018-04-25T04:29:54.072Z,1003.20
2018-04-25T04:30:54.503Z,1003.16
2018-04-25T04:31:54.937Z,1003.17
2018-04-25T04:32:55.364Z,1003.08
2018-04-25T04:33:55.797Z,1003.08
2018-04-25T04:34:56.225Z,1003.10
2018-04-25T04:35:56.655Z,1003.15
2018-04-25T04:36:57.086Z,1003.10
2018-04-25T04:37:57.588Z,1003.10
2018-04-25T04:38:57.956Z,1003.08
2018-04-25T04:39:58.378Z,1003.07
2018-04-25T04:40:58.810Z,1003.05
2018-04-25T04:41:59.236Z,1003.04
2018-04-25T04:42:59.671Z,1003.01
2018-04-25T04:44:00.100Z,1003.00
2018-04-25T04:45:00.536Z,1003.03
2018-04-25T04:46:00.959Z,1003.00
2018-04-25T04:47:01.403Z,1002.98
2018-04-25T04:48:01.840Z,1002.99
2018-04-25T04:49:02.252Z,1002.99
2018-04-25T04:50:02.712Z,1002.98
2018-04-25T04:51:03.143Z,1003.02
2018-04-25T04:52:03.552Z,1002.94
2018-04-25T04:53:04.003Z,1002.97
2018-04-25T04:54:04.437Z,1002.98
2018-04-25T04:55:04.865Z,1003.02
2018-04-25T04:56:05.275Z,1002.99
2018-04-25T04:57:05.698Z,1002.98
2018-04-25T04:58:06.122Z,1002.99
2018-04-25T04:59:06.559Z,1002.99
2018-04-25T05:00:06.999Z,1003.00
2018-04-25T05:01:07.428Z,1003.01
2018-04-25T05:02:07.850Z,1002.96
2018-04-25T05:03:08.331Z,1002.94
2018-04-25T05:04:08.713Z,1002.92
2018-04-25T05:05:09.163Z,1002.89
2018-04-25T05:06:09.575Z,1002.91
2018-04-25T05:07:10.002Z,1002.89
2018-04-25T05:08:10.444Z,1002.88
2018-04-25T05:09:10.867Z,1002.83
2018-04-25T05:10:11.306Z,1002.86
2018-04-25T05:11:11.725Z,1002.80
2018-04-25T05:12:12.187Z,1002.80
2018-04-25T05:13:12.685Z,1002.78
2018-04-25T05:14:13.012Z,1002.84
2018-04-25T05:15:13.455Z,1002.78
2018-04-25T05:16:13.902Z,1002.77
2018-04-25T05:17:14.346Z,1002.79
2018-04-25T05:18:14.745Z,1002.81
2018-04-25T05:19:15.174Z,1002.81
2018-04-25T05:20:15.634Z,1002.86
2018-04-25T05:21:16.035Z,1002.83
2018-04-25T05:22:16.466Z,1002.85
2018-04-25T05:23:16.895Z,1002.87
2018-04-25T05:24:17.339Z,1002.83
2018-04-25T05:25:17.769Z,1002.84
2018-04-25T05:26:18.193Z,1002.81
2018-04-25T05:27:18.627Z,1002.80
2018-04-25T05:28:19.055Z,1002.76
2018-04-25T05:29:19.499Z,1002.67
2018-04-25T05:30:19.925Z,1002.73
2018-04-25T05:31:20.388Z,1002.71
2018-04-25T05:32:20.779Z,1002.71
2018-04-25T05:33:21.210Z,1002.75
2018-04-25T05:34:21.660Z,1002.80
2018-04-25T05:35:22.074Z,1002.77
2018-04-25T05:36:22.505Z,1002.70
2018-04-25T05:37:22.949Z,1002.78
2018-04-25T05:38:23.377Z,1002.75
2018-04-25T05:39:23.801Z,1002.72
2018-04-25T05:40:24.248Z,1002.74
2018-04-25T05:41:24.705Z,1002.75
2018-04-25T05:42:25.147Z,1002.69
2018-04-25T05:43:25.532Z,1002.72
2018-04-25T05:44:25.965Z,1002.73
2018-04-25T05:45:26.415Z,1002.67
2018-04-25T05:46:26.816Z,1002.70
2018-04-25T05:47:27.263Z,1002.70
2018-04-25T05:48:27.688Z,1002.73
2018-04-25T05:49:28.131Z,1002.73
2018-04-25T05:50:28.542Z,1002.65
2018-04-25T05:51:28.980Z,1002.69
2018-04-25T05:52:29.407Z,1002.73
2018-04-25T05:53:29.836Z,1002.70
2018-04-25T05:54:30.281Z,1002.70
2018-04-25T05:55:30.708Z,1002.67
2018-04-25T05:56:31.134Z,1002.57
2018-04-25T05:57:31.587Z,1002.55
2018-04-25T05:58:31.993Z,1002.60
2018-04-25T05:59:32.423Z,1002.62
2018-04-25T06:00:32.865Z,1002.64
2018-04-25T06:01:33.295Z,1002.58
2018-04-25T06:02:33.720Z,1002.62
2018-04-25T06:03:34.193Z,1002.56
2018-04-25T06:04:34.601Z,1002.57
2018-04-25T06:05:35.031Z,1002.49
2018-04-25T06:06:35.454Z,1002.51
2018-04-25T06:07:35.878Z,1002.52
2018-04-25T06:08:36.313Z,1002.47
2018-04-25T06:09:36.729Z,1002.47
2018-04-25T06:10:37.189Z,1002.44
2018-04-25T06:11:37.594Z,1002.39
2018-04-25T06:12:38.113Z,1002.31
2018-04-25T06:13:38.466Z,1002.33
2018-04-25T06:14:38.886Z,1002.31
2018-04-25T06:15:39.319Z,1002.30
2018-04-25T06:16:39.754Z,1002.30
2018-04-25T06:17:40.183Z,1002.26
2018-04-25T06:18:40.623Z,1002.23
2018-04-25T06:19:41.063Z,1002.29
2018-04-25T06:20:41.502Z,1002.19
2018-04-25T06:21:41.919Z,1002.20
2018-04-25T06:22:42.343Z,1002.20
2018-04-25T06:23:42.773Z,1002.20
2018-04-25T06:24:43.199Z,1002.21
2018-04-25T06:25:43.623Z,1002.20
2018-04-25T06:26:44.064Z,1002.23
2018-04-25T06:27:44.505Z,1002.17
2018-04-25T06:28:44.926Z,1002.19
2018-04-25T06:29:45.350Z,1002.20
2018-04-25T06:30:45.791Z,1002.18
2018-04-25T06:31:46.242Z,1002.17
2018-04-25T06:32:46.658Z,1002.20
2018-04-25T06:33:47.080Z,1002.22
2018-04-25T06:34:47.572Z,1002.18
2018-04-25T06:35:47.943Z,1002.18
2018-04-25T06:36:48.376Z,1002.18
2018-04-25T06:37:48.804Z,1002.15
2018-04-25T06:38:49.233Z,1002.15
2018-04-25T06:39:49.670Z,1002.14
2018-04-25T06:40:50.100Z,1002.11
2018-04-25T06:41:50.531Z,1002.13
2018-04-25T06:42:50.967Z,1002.11
2018-04-25T06:43:51.391Z,1002.11
2018-04-25T06:44:51.903Z,1002.10
2018-04-25T06:45:52.253Z,1002.05
2018-04-25T06:46:52.684Z,1002.03
2018-04-25T06:47:53.117Z,1002.04
2018-04-25T06:48:53.547Z,1002.01
2018-04-25T06:49:53.980Z,1002.02
2018-04-25T06:50:54.414Z,1001.97
2018-04-25T06:51:54.840Z,1002.02
2018-04-25T06:52:55.273Z,1002.03
2018-04-25T06:53:55.705Z,1002.08
2018-04-25T06:54:56.142Z,1002.05
2018-04-25T06:55:56.567Z,1002.06
2018-04-25T06:56:57.005Z,1002.05
2018-04-25T06:57:57.452Z,1002.05
2018-04-25T06:58:57.868Z,1002.02
2018-04-25T06:59:58.291Z,1002.03
2018-04-25T07:00:58.726Z,1001.98
2018-04-25T07:01:59.160Z,1001.97
2018-04-25T07:02:59.591Z,1001.97
2018-04-25T07:04:00.027Z,1001.98
2018-04-25T07:05:00.454Z,1002.01
2018-04-25T07:06:00.893Z,1002.00
2018-04-25T07:07:01.323Z,1002.03
2018-04-25T07:08:01.840Z,1002.06
2018-04-25T07:09:02.182Z,1002.11
2018-04-25T07:10:02.617Z,1002.11
2018-04-25T07:11:03.049Z,1002.13
2018-04-25T07:12:03.478Z,1002.07
2018-04-25T07:13:03.918Z,1002.09
2018-04-25T07:14:04.428Z,1002.05
2018-04-25T07:15:04.772Z,1002.08
2018-04-25T07:16:05.226Z,1002.08
2018-04-25T07:17:05.643Z,1002.12
2018-04-25T07:18:06.073Z,1002.09
2018-04-25T07:19:06.506Z,1002.07
2018-04-25T07:20:06.993Z,1002.05
2018-04-25T07:21:07.369Z,1001.99
2018-04-25T07:22:07.805Z,1001.99
2018-04-25T07:23:08.244Z,1001.98
2018-04-25T07:24:08.676Z,1001.98
2018-04-25T07:25:09.120Z,1001.95
2018-04-25T07:26:09.539Z,1001.95
2018-04-25T07:27:09.964Z,1001.93
2018-04-25T07:28:10.396Z,1001.94
2018-04-25T07:29:10.830Z,1001.96
2018-04-25T07:30:11.261Z,1001.94
2018-04-25T07:31:11.694Z,1001.93
2018-04-25T07:32:12.131Z,1001.97
2018-04-25T07:33:12.554Z,1001.97
2018-04-25T07:34:12.997Z,1001.95
2018-04-25T07:35:13.423Z,1001.93
2018-04-25T07:36:13.910Z,1001.99
2018-04-25T07:37:14.287Z,1002.04
2018-04-25T07:38:14.719Z,1002.01
2018-04-25T07:39:15.158Z,1002.01
2018-04-25T07:40:15.585Z,1002.00
2018-04-25T07:41:16.024Z,1002.01
2018-04-25T07:42:16.454Z,1001.99
2018-04-25T07:43:16.886Z,1001.99
2018-04-25T07:44:17.316Z,1001.97
2018-04-25T07:45:17.750Z,1001.95
2018-04-25T07:46:18.179Z,1001.91
2018-04-25T07:47:18.615Z,1001.92
2018-04-25T07:48:19.047Z,1001.95
2018-04-25T07:49:19.483Z,1001.92
2018-04-25T07:50:19.915Z,1001.87
2018-04-25T07:51:20.348Z,1001.95
2018-04-25T07:52:20.836Z,1001.86
2018-04-25T07:53:21.215Z,1001.90
2018-04-25T07:54:21.644Z,1001.86
2018-04-25T07:55:22.076Z,1001.82
2018-04-25T07:56:22.511Z,1001.84
2018-04-25T07:57:22.943Z,1001.84
2018-04-25T07:58:23.378Z,1001.76
2018-04-25T07:59:23.810Z,1001.82
2018-04-25T08:00:24.242Z,1001.83
2018-04-25T08:01:24.675Z,1001.79
2018-04-25T08:02:25.110Z,1001.80
2018-04-25T08:03:25.544Z,1001.80
2018-04-25T08:04:25.979Z,1001.84
2018-04-25T08:05:26.411Z,1001.76
2018-04-25T08:06:26.841Z,1001.73
2018-04-25T08:07:27.298Z,1001.75
2018-04-25T08:08:27.715Z,1001.80
2018-04-25T08:09:28.149Z,1001.81
2018-04-25T08:10:28.584Z,1001.82
2018-04-25T08:11:29.009Z,1001.78
2018-04-25T08:12:29.440Z,1001.79
2018-04-25T08:13:29.877Z,1001.75
2018-04-25T08:14:30.312Z,1001.79
2018-04-25T08:15:30.746Z,1001.74
2018-04-25T08:16:31.176Z,1001.75
2018-04-25T08:17:31.622Z,1001.66
2018-04-25T08:18:32.048Z,1001.73
2018-04-25T08:19:32.488Z,1001.71
2018-04-25T08:20:32.914Z,1001.69
2018-04-25T08:21:33.348Z,1001.77
2018-04-25T08:22:33.783Z,1001.72
2018-04-25T08:23:34.220Z,1001.66
2018-04-25T08:24:37.534Z,1001.70
2018-04-25T08:25:36.040Z,1001.64
2018-04-25T08:26:35.532Z,1001.68
2018-04-25T08:27:50.539Z,1001.67
2018-04-25T08:28:39.057Z,1001.61
2018-04-25T08:29:36.840Z,1001.62
2018-04-25T08:30:37.269Z,1001.60
2018-04-25T08:31:37.705Z,1001.58
2018-04-25T08:32:38.145Z,1001.63
2018-04-25T08:33:38.624Z,1001.62
2018-04-25T08:35:00.181Z,1001.64
2018-04-25T08:35:39.461Z,1001.71
2018-04-25T08:36:39.890Z,1001.65
2018-04-25T08:37:40.339Z,1001.69
2018-04-25T08:38:40.774Z,1001.58
2018-04-25T08:39:41.199Z,1001.63
2018-04-25T08:40:41.641Z,1001.66
2018-04-25T08:41:42.085Z,1001.70
2018-04-25T08:42:42.520Z,1001.69
2018-04-25T08:43:42.980Z,1001.68
2018-04-25T08:44:43.408Z,1001.69
2018-04-25T08:45:43.817Z,1001.69
2018-04-25T08:46:44.277Z,1001.69
2018-04-25T08:47:44.699Z,1001.73
2018-04-25T08:48:45.134Z,1001.67
2018-04-25T08:49:46.549Z,1001.71
2018-04-25T08:50:46.008Z,1001.65
2018-04-25T08:51:46.435Z,1001.62
2018-04-25T08:52:46.907Z,1001.65
2018-04-25T08:53:50.050Z,1001.72
2018-04-25T08:54:47.756Z,1001.64
2018-04-25T08:55:48.197Z,1001.62
2018-04-25T08:56:51.570Z,1001.65
2018-04-25T08:57:49.055Z,1001.69
2018-04-25T08:58:52.050Z,1001.67
2018-04-25T08:59:49.947Z,1001.65
2018-04-25T09:00:50.373Z,1001.60
2018-04-25T09:01:50.814Z,1001.60
2018-04-25T09:02:51.247Z,1001.58
2018-04-25T09:03:51.689Z,1001.63
2018-04-25T09:04:52.159Z,1001.56
2018-04-25T09:05:52.652Z,1001.56
2018-04-25T09:06:53.022Z,1001.54
2018-04-25T09:07:53.459Z,1001.59
2018-04-25T09:08:53.892Z,1001.55
2018-04-25T09:09:54.314Z,1001.51
2018-04-25T09:10:54.795Z,1001.47
2018-04-25T09:11:55.191Z,1001.45
2018-04-25T09:12:55.622Z,1001.41
2018-04-25T09:13:56.065Z,1001.42
2018-04-25T09:14:56.512Z,1001.35
2018-04-25T09:15:56.942Z,1001.34
2018-04-25T09:16:57.387Z,1001.35
2018-04-25T09:17:57.829Z,1001.37
2018-04-25T09:18:58.264Z,1001.44
2018-04-25T09:19:58.702Z,1001.36
2018-04-25T09:20:59.176Z,1001.36
2018-04-25T09:21:59.582Z,1001.34
2018-04-25T09:23:55.233Z,1001.29
2018-04-25T09:24:55.663Z,1001.28
2018-04-25T09:26:50.263Z,1001.31
2018-04-25T09:27:50.721Z,1001.28
2018-04-25T09:29:45.307Z,1001.36
2018-04-25T09:30:45.741Z,1001.42
2018-04-25T09:32:40.354Z,1001.31
2018-04-25T09:33:40.807Z,1001.27
2018-04-25T09:35:35.408Z,1001.14
2018-04-25T09:36:35.853Z,1001.21
2018-04-25T09:38:30.449Z,1001.29
2018-04-25T09:39:30.902Z,1001.22
2018-04-25T09:41:25.582Z,1001.18
2018-04-25T09:42:25.964Z,1001.26
2018-04-25T09:44:20.572Z,1001.14
2018-04-25T09:45:21.024Z,1001.19
2018-04-25T09:47:15.630Z,1000.96
2018-04-25T09:48:16.078Z,1001.01
2018-04-25T09:50:10.690Z,1001.01
2018-04-25T09:51:11.130Z,1000.96
2018-04-25T09:53:06.716Z,1000.99
2018-04-25T09:54:07.162Z,1000.99
2018-04-25T09:56:01.765Z,1000.93
2018-04-25T09:57:02.200Z,1000.82
2018-04-25T09:58:56.802Z,1000.90
2018-04-25T09:59:57.252Z,1000.91
2018-04-25T10:01:51.858Z,1000.80
2018-04-25T10:02:52.285Z,1000.88
2018-04-25T10:04:47.885Z,1000.76
2018-04-25T10:05:48.314Z,1000.84
2018-04-25T10:07:43.895Z,1000.75
2018-04-25T10:08:44.329Z,1000.82
2018-04-25T10:10:38.933Z,1000.79
2018-04-25T10:11:39.364Z,1000.79
2018-04-25T10:13:33.960Z,1000.80
2018-04-25T10:14:34.411Z,1000.78
2018-04-25T10:16:28.993Z,1000.80
2018-04-25T10:17:29.424Z,1000.90
2018-04-25T10:19:25.014Z,1000.96
2018-04-25T10:20:25.437Z,1000.86
2018-04-25T10:22:20.045Z,1001.03
2018-04-25T10:23:20.487Z,1000.70
2018-04-25T10:25:16.046Z,1000.80
2018-04-25T10:26:16.514Z,1000.82
2018-04-25T10:28:11.090Z,1000.75
2018-04-25T10:29:11.535Z,1000.87
2018-04-25T10:31:06.120Z,1000.62
2018-04-25T10:32:06.653Z,1000.79
2018-04-25T10:34:01.187Z,1000.81
2018-04-25T10:35:01.631Z,1000.81
2018-04-25T10:36:02.077Z,1000.73
2018-04-25T10:37:02.521Z,1000.66
2018-04-25T10:38:02.970Z,1000.72
2018-04-25T10:39:03.415Z,1000.67
2018-04-25T10:40:03.863Z,1000.83
2018-04-25T10:41:04.307Z,1000.77
2018-04-25T10:42:04.754Z,1000.74
2018-04-25T10:43:05.201Z,1000.75
2018-04-25T10:44:05.651Z,1000.59
2018-04-25T10:45:06.090Z,1000.69
2018-04-25T10:46:06.528Z,1000.68
2018-04-25T10:47:06.978Z,1000.68
2018-04-25T10:48:07.419Z,1000.73
2018-04-25T10:49:07.858Z,1000.71
2018-04-25T10:50:08.304Z,1000.66
2018-04-25T10:51:08.745Z,1000.71
2018-04-25T10:52:09.188Z,1000.67
2018-04-25T10:53:09.632Z,1000.69
2018-04-25T10:54:10.070Z,1000.68
2018-04-25T10:55:10.512Z,1000.64
2018-04-25T10:56:10.948Z,1000.59
2018-04-25T10:57:11.398Z,1000.66
2018-04-25T10:58:11.834Z,1000.64
2018-04-25T10:59:12.278Z,1000.61
2018-04-25T11:00:12.713Z,1000.63
2018-04-25T11:01:13.158Z,1000.58
2018-04-25T11:02:13.594Z,1000.64
2018-04-25T11:03:14.033Z,1000.62
2018-04-25T11:04:14.475Z,1000.64
2018-04-25T11:05:14.918Z,1000.63
2018-04-25T11:06:15.356Z,1000.77
2018-04-25T11:07:15.794Z,1000.88
2018-04-25T11:08:16.241Z,1000.92
2018-04-25T11:09:16.671Z,1001.07
2018-04-25T11:10:17.126Z,1000.99
2018-04-25T11:11:17.553Z,1001.23
2018-04-25T11:12:18.006Z,1001.34
2018-04-25T11:13:18.435Z,1001.26
2018-04-25T11:14:18.870Z,1001.60
2018-04-25T11:15:19.309Z,1001.52
2018-04-25T11:16:19.743Z,1001.67
2018-04-25T11:17:20.185Z,1001.88
2018-04-25T11:18:20.621Z,1001.79
2018-04-25T11:19:21.057Z,1001.77
2018-04-25T11:20:21.550Z,1001.79
2018-04-25T11:21:21.922Z,1001.78
2018-04-25T11:22:22.366Z,1001.76
2018-04-25T11:23:22.792Z,1001.75
2018-04-25T11:24:23.229Z,1001.93
2018-04-25T11:25:23.663Z,1002.01
2018-04-25T11:26:24.159Z,1001.98
2018-04-25T11:27:24.533Z,1002.08
2018-04-25T11:28:24.967Z,1001.84
2018-04-25T11:29:25.402Z,1002.03
2018-04-25T11:30:25.836Z,1001.93
2018-04-25T11:31:26.277Z,1002.02
2018-04-25T11:32:26.708Z,1001.98
2018-04-25T11:33:27.135Z,1001.93
2018-04-25T11:34:27.565Z,1001.83
2018-04-25T11:35:27.999Z,1001.83
2018-04-25T11:36:28.491Z,1001.81
2018-04-25T11:37:28.873Z,1001.68
2018-04-25T11:38:29.293Z,1001.75
2018-04-25T11:39:29.733Z,1001.70
2018-04-25T11:40:30.162Z,1001.59
2018-04-25T11:41:30.595Z,1001.63
2018-04-25T11:42:31.028Z,1001.56
2018-04-25T11:43:31.462Z,1001.63
2018-04-25T11:44:31.898Z,1001.63
2018-04-25T11:45:32.326Z,1001.69
2018-04-25T11:46:32.774Z,1001.55
2018-04-25T11:47:33.186Z,1001.57
2018-04-25T11:48:33.629Z,1001.54
2018-04-25T11:49:34.054Z,1001.59
2018-04-25T11:50:34.490Z,1001.56
2018-04-25T11:51:34.923Z,1001.56
2018-04-25T11:52:35.366Z,1001.59
2018-04-25T11:53:35.790Z,1001.54
2018-04-25T11:54:36.220Z,1001.61
2018-04-25T11:55:36.656Z,1001.68
2018-04-25T11:56:37.090Z,1001.64
2018-04-25T11:57:37.533Z,1001.71
2018-04-25T11:58:38.016Z,1001.71
2018-04-25T11:59:38.447Z,1001.68
2018-04-25T12:00:38.831Z,1001.66
2018-04-25T12:01:39.261Z,1001.80
2018-04-25T12:02:39.694Z,1001.76
2018-04-25T12:03:40.127Z,1001.76
2018-04-25T12:04:40.600Z,1001.64
2018-04-25T12:05:41.000Z,1001.75
2018-04-25T12:06:41.436Z,1001.66
2018-04-25T12:07:41.867Z,1001.78
2018-04-25T12:08:42.305Z,1001.61
2018-04-25T12:09:42.745Z,1001.73
2018-04-25T12:10:43.176Z,1001.63
2018-04-25T12:11:43.620Z,1001.68
2018-04-25T12:12:44.042Z,1001.63
2018-04-25T12:13:44.482Z,1001.62
2018-04-25T12:14:44.921Z,1001.69
2018-04-25T12:15:45.351Z,1001.69
2018-04-25T12:16:45.787Z,1001.65
2018-04-25T12:17:46.223Z,1001.66
2018-04-25T12:18:46.679Z,1001.69
2018-04-25T12:19:47.091Z,1001.60
2018-04-25T12:20:47.533Z,1001.59
2018-04-25T12:21:47.955Z,1001.61
2018-04-25T12:22:48.403Z,1001.66
2018-04-25T12:23:48.828Z,1001.65
2018-04-25T12:24:49.263Z,1001.63
2018-04-25T12:25:49.700Z,1001.73
2018-04-25T12:26:50.134Z,1001.72
2018-04-25T12:27:50.572Z,1001.67
2018-04-25T12:28:51.005Z,1001.78
2018-04-25T12:29:51.437Z,1001.74
2018-04-25T12:30:51.874Z,1001.72
2018-04-25T12:31:52.311Z,1001.85
2018-04-25T12:32:52.743Z,1001.86
2018-04-25T12:33:53.187Z,1001.77